sensor_id;sensor_type;location;lat;lon;timestamp;temperature;humidity
51619;DHT22;38518;53.164;5.430;2023-11-19T00:02:23;10.90;99.90
51619;DHT22;38518;53.164;5.430;2023-11-19T00:04:49;10.90;99.90
51619;DHT22;38518;53.164;5.430;2023-11-19T00:07:15;10.90;99.90
51619;DHT22;38518;53.164;5.430;2023-11-19T00:09:41;10.90;99.90
51619;DHT22;38518;53.164;5.430;2023-11-19T00:12:09;10.90;99.90
51619;DHT22;38518;53.164;5.430;2023-11-19T00:14:34;10.90;99.90
51619;DHT22;38518;53.164;5.430;2023-11-19T00:17:00;10.90;99.90
51619;DHT22;38518;53.164;5.430;2023-11-19T00:19:26;11.00;99.90
51619;DHT22;38518;53.164;5.430;2023-11-19T00:21:52;11.00;99.90
51619;DHT22;38518;53.164;5.430;2023-11-19T00:24:18;11.00;99.90
51619;DHT22;38518;53.164;5.430;2023-11-19T00:26:45;11.00;99.90
51619;DHT22;38518;53.164;5.430;2023-11-19T00:29:12;11.00;99.90
51619;DHT22;38518;53.164;5.430;2023-11-19T00:31:39;11.00;99.90
51619;DHT22;38518;53.164;5.430;2023-11-19T00:34:05;11.00;99.90
51619;DHT22;38518;53.164;5.430;2023-11-19T00:36:31;10.90;99.90
51619;DHT22;38518;53.164;5.430;2023-11-19T00:38:57;10.60;99.90
51619;DHT22;38518;53.164;5.430;2023-11-19T00:41:24;10.90;99.90
51619;DHT22;38518;53.164;5.430;2023-11-19T00:43:51;11.10;99.90
51619;DHT22;38518;53.164;5.430;2023-11-19T00:46:16;10.90;99.90
51619;DHT22;38518;53.164;5.430;2023-11-19T00:48:42;11.70;99.90
51619;DHT22;38518;53.164;5.430;2023-11-19T00:51:08;10.80;99.90
51619;DHT22;38518;53.164;5.430;2023-11-19T00:53:34;10.80;99.90
51619;DHT22;38518;53.164;5.430;2023-11-19T00:56:00;10.80;99.90
51619;DHT22;38518;53.164;5.430;2023-11-19T00:58:25;10.80;99.90
51619;DHT22;38518;53.164;5.430;2023-11-19T01:00:51;10.80;99.90
51619;DHT22;38518;53.164;5.430;2023-11-19T01:03:17;10.80;99.90
51619;DHT22;38518;53.164;5.430;2023-11-19T01:05:43;10.70;99.90
51619;DHT22;38518;53.164;5.430;2023-11-19T01:08:10;10.70;99.90
51619;DHT22;38518;53.164;5.430;2023-11-19T01:10:39;10.70;99.90
51619;DHT22;38518;53.164;5.430;2023-11-19T01:13:05;10.70;99.90
51619;DHT22;38518;53.164;5.430;2023-11-19T01:15:34;9.60;99.90
51619;DHT22;38518;53.164;5.430;2023-11-19T01:18:00;10.90;99.90
51619;DHT22;38518;53.164;5.430;2023-11-19T01:20:30;10.60;99.90
51619;DHT22;38518;53.164;5.430;2023-11-19T01:22:56;10.60;99.90
51619;DHT22;38518;53.164;5.430;2023-11-19T01:25:22;10.50;99.90
51619;DHT22;38518;53.164;5.430;2023-11-19T01:27:47;10.50;99.90
51619;DHT22;38518;53.164;5.430;2023-11-19T01:30:13;10.50;99.90
51619;DHT22;38518;53.164;5.430;2023-11-19T01:32:39;10.40;99.90
51619;DHT22;38518;53.164;5.430;2023-11-19T01:35:06;10.40;99.90
51619;DHT22;38518;53.164;5.430;2023-11-19T01:37:32;10.40;99.90
51619;DHT22;38518;53.164;5.430;2023-11-19T01:39:58;10.30;99.90
51619;DHT22;38518;53.164;5.430;2023-11-19T01:42:23;10.40;99.90
51619;DHT22;38518;53.164;5.430;2023-11-19T01:44:58;10.40;99.90
51619;DHT22;38518;53.164;5.430;2023-11-19T01:47:25;10.40;99.90
51619;DHT22;38518;53.164;5.430;2023-11-19T01:49:52;10.40;99.90
51619;DHT22;38518;53.164;5.430;2023-11-19T01:52:18;10.40;99.90
51619;DHT22;38518;53.164;5.430;2023-11-19T01:54:45;10.40;99.90
51619;DHT22;38518;53.164;5.430;2023-11-19T01:57:13;10.40;99.90
51619;DHT22;38518;53.164;5.430;2023-11-19T01:59:39;10.40;99.90
51619;DHT22;38518;53.164;5.430;2023-11-19T02:02:06;10.30;99.90
51619;DHT22;38518;53.164;5.430;2023-11-19T02:04:32;10.30;99.90
51619;DHT22;38518;53.164;5.430;2023-11-19T02:06:58;10.30;99.90
51619;DHT22;38518;53.164;5.430;2023-11-19T02:09:24;10.20;99.90
51619;DHT22;38518;53.164;5.430;2023-11-19T02:11:50;10.20;99.90
51619;DHT22;38518;53.164;5.430;2023-11-19T02:14:23;10.30;99.90
51619;DHT22;38518;53.164;5.430;2023-11-19T02:16:51;10.30;99.90
51619;DHT22;38518;53.164;5.430;2023-11-19T02:19:19;10.30;99.90
51619;DHT22;38518;53.164;5.430;2023-11-19T02:21:45;10.40;99.90
51619;DHT22;38518;53.164;5.430;2023-11-19T02:24:12;10.40;99.90
51619;DHT22;38518;53.164;5.430;2023-11-19T02:26:52;10.40;99.90
51619;DHT22;38518;53.164;5.430;2023-11-19T02:29:18;10.40;99.90
51619;DHT22;38518;53.164;5.430;2023-11-19T02:31:44;10.60;99.90
51619;DHT22;38518;53.164;5.430;2023-11-19T02:34:12;10.40;99.90
51619;DHT22;38518;53.164;5.430;2023-11-19T02:36:38;10.40;99.90
51619;DHT22;38518;53.164;5.430;2023-11-19T02:39:07;10.40;99.90
51619;DHT22;38518;53.164;5.430;2023-11-19T02:41:36;10.40;99.90
51619;DHT22;38518;53.164;5.430;2023-11-19T02:44:01;10.50;99.90
51619;DHT22;38518;53.164;5.430;2023-11-19T02:46:27;10.50;99.90
51619;DHT22;38518;53.164;5.430;2023-11-19T02:48:53;10.40;99.90
51619;DHT22;38518;53.164;5.430;2023-11-19T02:51:18;10.40;99.90
51619;DHT22;38518;53.164;5.430;2023-11-19T02:53:44;10.40;99.90
51619;DHT22;38518;53.164;5.430;2023-11-19T02:56:13;10.40;99.90
51619;DHT22;38518;53.164;5.430;2023-11-19T02:58:51;10.40;99.90
51619;DHT22;38518;53.164;5.430;2023-11-19T03:01:26;10.30;99.90
51619;DHT22;38518;53.164;5.430;2023-11-19T03:03:58;10.30;99.90
51619;DHT22;38518;53.164;5.430;2023-11-19T03:06:24;10.30;99.90
51619;DHT22;38518;53.164;5.430;2023-11-19T03:08:50;10.30;99.90
51619;DHT22;38518;53.164;5.430;2023-11-19T03:11:16;10.30;99.90
51619;DHT22;38518;53.164;5.430;2023-11-19T03:13:41;10.30;99.90
51619;DHT22;38518;53.164;5.430;2023-11-19T03:16:07;10.40;99.90
51619;DHT22;38518;53.164;5.430;2023-11-19T03:18:33;10.40;99.90
51619;DHT22;38518;53.164;5.430;2023-11-19T03:20:59;10.40;99.90
51619;DHT22;38518;53.164;5.430;2023-11-19T03:23:25;10.40;99.90
51619;DHT22;38518;53.164;5.430;2023-11-19T03:25:53;10.30;99.90
51619;DHT22;38518;53.164;5.430;2023-11-19T03:28:19;10.30;99.90
51619;DHT22;38518;53.164;5.430;2023-11-19T03:30:45;10.30;99.90
51619;DHT22;38518;53.164;5.430;2023-11-19T03:33:11;10.30;99.90
51619;DHT22;38518;53.164;5.430;2023-11-19T03:35:37;10.20;99.90
51619;DHT22;38518;53.164;5.430;2023-11-19T03:38:02;10.10;99.90
51619;DHT22;38518;53.164;5.430;2023-11-19T03:40:28;10.20;99.90
51619;DHT22;38518;53.164;5.430;2023-11-19T03:42:56;10.20;99.90
51619;DHT22;38518;53.164;5.430;2023-11-19T03:45:23;10.20;99.90
51619;DHT22;38518;53.164;5.430;2023-11-19T03:47:50;10.10;99.90
51619;DHT22;38518;53.164;5.430;2023-11-19T03:50:16;10.20;99.90
51619;DHT22;38518;53.164;5.430;2023-11-19T03:52:42;10.10;99.90
51619;DHT22;38518;53.164;5.430;2023-11-19T03:55:07;10.20;99.90
51619;DHT22;38518;53.164;5.430;2023-11-19T03:57:34;10.20;99.90
51619;DHT22;38518;53.164;5.430;2023-11-19T04:00:01;10.20;99.90
51619;DHT22;38518;53.164;5.430;2023-11-19T04:02:32;10.20;99.90
51619;DHT22;38518;53.164;5.430;2023-11-19T04:04:58;10.30;99.90
51619;DHT22;38518;53.164;5.430;2023-11-19T04:07:23;10.20;99.90
51619;DHT22;38518;53.164;5.430;2023-11-19T04:09:49;10.30;99.90
51619;DHT22;38518;53.164;5.430;2023-11-19T04:12:15;10.30;99.90
51619;DHT22;38518;53.164;5.430;2023-11-19T04:14:40;10.30;99.90
51619;DHT22;38518;53.164;5.430;2023-11-19T04:17:06;10.30;99.90
51619;DHT22;38518;53.164;5.430;2023-11-19T04:19:32;10.30;99.90
51619;DHT22;38518;53.164;5.430;2023-11-19T04:21:58;10.40;99.90
51619;DHT22;38518;53.164;5.430;2023-11-19T04:24:24;10.30;99.90
51619;DHT22;38518;53.164;5.430;2023-11-19T04:26:49;10.30;99.90
51619;DHT22;38518;53.164;5.430;2023-11-19T04:29:16;10.30;99.90
51619;DHT22;38518;53.164;5.430;2023-11-19T04:31:45;10.30;99.90
51619;DHT22;38518;53.164;5.430;2023-11-19T04:34:11;10.30;99.90
51619;DHT22;38518;53.164;5.430;2023-11-19T04:36:37;10.30;99.90
51619;DHT22;38518;53.164;5.430;2023-11-19T04:39:03;10.30;99.90
51619;DHT22;38518;53.164;5.430;2023-11-19T04:41:46;10.30;99.90
51619;DHT22;38518;53.164;5.430;2023-11-19T04:44:12;10.40;99.90
51619;DHT22;38518;53.164;5.430;2023-11-19T04:46:38;10.30;99.90
51619;DHT22;38518;53.164;5.430;2023-11-19T04:49:03;10.30;99.90
51619;DHT22;38518;53.164;5.430;2023-11-19T04:51:30;10.30;99.90
51619;DHT22;38518;53.164;5.430;2023-11-19T04:53:56;10.30;99.90
51619;DHT22;38518;53.164;5.430;2023-11-19T04:56:22;10.30;99.90
51619;DHT22;38518;53.164;5.430;2023-11-19T04:58:48;10.30;99.90
51619;DHT22;38518;53.164;5.430;2023-11-19T05:01:14;10.40;99.90
51619;DHT22;38518;53.164;5.430;2023-11-19T05:03:43;10.40;99.90
51619;DHT22;38518;53.164;5.430;2023-11-19T05:06:09;10.40;99.90
51619;DHT22;38518;53.164;5.430;2023-11-19T05:08:35;10.30;99.90
51619;DHT22;38518;53.164;5.430;2023-11-19T05:11:01;10.40;99.90
51619;DHT22;38518;53.164;5.430;2023-11-19T05:13:27;10.30;99.90
51619;DHT22;38518;53.164;5.430;2023-11-19T05:15:52;10.30;99.90
51619;DHT22;38518;53.164;5.430;2023-11-19T05:18:18;10.40;99.90
51619;DHT22;38518;53.164;5.430;2023-11-19T05:20:45;10.40;99.90
51619;DHT22;38518;53.164;5.430;2023-11-19T05:23:11;10.40;99.90
51619;DHT22;38518;53.164;5.430;2023-11-19T05:25:37;10.40;99.90
51619;DHT22;38518;53.164;5.430;2023-11-19T05:28:03;10.40;99.90
51619;DHT22;38518;53.164;5.430;2023-11-19T05:30:28;10.40;99.90
51619;DHT22;38518;53.164;5.430;2023-11-19T05:32:54;10.40;99.90
51619;DHT22;38518;53.164;5.430;2023-11-19T05:35:19;10.40;99.90
51619;DHT22;38518;53.164;5.430;2023-11-19T05:37:45;10.40;99.90
51619;DHT22;38518;53.164;5.430;2023-11-19T05:40:11;10.40;99.90
51619;DHT22;38518;53.164;5.430;2023-11-19T05:42:43;10.30;99.90
51619;DHT22;38518;53.164;5.430;2023-11-19T05:45:11;10.40;99.90
51619;DHT22;38518;53.164;5.430;2023-11-19T05:47:37;10.40;99.90
51619;DHT22;38518;53.164;5.430;2023-11-19T05:50:03;10.40;99.90
51619;DHT22;38518;53.164;5.430;2023-11-19T05:52:31;10.40;99.90
51619;DHT22;38518;53.164;5.430;2023-11-19T05:55:00;10.40;99.90
51619;DHT22;38518;53.164;5.430;2023-11-19T05:57:29;10.40;99.90
51619;DHT22;38518;53.164;5.430;2023-11-19T05:59:55;10.40;99.90
51619;DHT22;38518;53.164;5.430;2023-11-19T06:02:21;10.40;99.90
51619;DHT22;38518;53.164;5.430;2023-11-19T06:04:47;10.40;99.90
51619;DHT22;38518;53.164;5.430;2023-11-19T06:07:13;10.30;99.90
51619;DHT22;38518;53.164;5.430;2023-11-19T06:09:40;10.30;99.90
51619;DHT22;38518;53.164;5.430;2023-11-19T06:12:07;10.40;99.90
51619;DHT22;38518;53.164;5.430;2023-11-19T06:14:33;10.30;99.90
51619;DHT22;38518;53.164;5.430;2023-11-19T06:16:58;10.40;99.90
51619;DHT22;38518;53.164;5.430;2023-11-19T06:19:24;10.30;99.90
51619;DHT22;38518;53.164;5.430;2023-11-19T06:21:50;10.30;99.90
51619;DHT22;38518;53.164;5.430;2023-11-19T06:24:16;10.40;99.90
51619;DHT22;38518;53.164;5.430;2023-11-19T06:26:42;10.30;99.90
51619;DHT22;38518;53.164;5.430;2023-11-19T06:29:08;10.40;99.90
51619;DHT22;38518;53.164;5.430;2023-11-19T06:31:34;10.30;99.90
51619;DHT22;38518;53.164;5.430;2023-11-19T06:33:59;10.30;99.90
51619;DHT22;38518;53.164;5.430;2023-11-19T06:36:25;10.80;99.90
51619;DHT22;38518;53.164;5.430;2023-11-19T06:38:52;10.30;99.90
51619;DHT22;38518;53.164;5.430;2023-11-19T06:41:18;10.30;99.90
51619;DHT22;38518;53.164;5.430;2023-11-19T06:43:43;10.30;99.90
51619;DHT22;38518;53.164;5.430;2023-11-19T06:46:19;10.30;99.90
51619;DHT22;38518;53.164;5.430;2023-11-19T06:48:45;10.30;99.90
51619;DHT22;38518;53.164;5.430;2023-11-19T06:51:11;10.40;99.90
51619;DHT22;38518;53.164;5.430;2023-11-19T06:53:37;10.40;99.90
51619;DHT22;38518;53.164;5.430;2023-11-19T06:56:03;10.40;99.90
51619;DHT22;38518;53.164;5.430;2023-11-19T06:58:40;10.40;99.90
51619;DHT22;38518;53.164;5.430;2023-11-19T07:01:07;10.30;99.90
51619;DHT22;38518;53.164;5.430;2023-11-19T07:03:35;10.30;99.90
51619;DHT22;38518;53.164;5.430;2023-11-19T07:06:00;10.30;99.90
51619;DHT22;38518;53.164;5.430;2023-11-19T07:08:26;10.30;99.90
51619;DHT22;38518;53.164;5.430;2023-11-19T07:10:52;10.20;99.90
51619;DHT22;38518;53.164;5.430;2023-11-19T07:13:18;10.30;99.90
51619;DHT22;38518;53.164;5.430;2023-11-19T07:15:44;10.20;99.90
51619;DHT22;38518;53.164;5.430;2023-11-19T07:18:10;10.30;99.90
51619;DHT22;38518;53.164;5.430;2023-11-19T07:20:37;10.30;99.90
51619;DHT22;38518;53.164;5.430;2023-11-19T07:23:04;10.30;99.90
51619;DHT22;38518;53.164;5.430;2023-11-19T07:25:29;10.40;99.90
51619;DHT22;38518;53.164;5.430;2023-11-19T07:27:55;10.40;99.90
51619;DHT22;38518;53.164;5.430;2023-11-19T07:30:22;10.40;99.90
51619;DHT22;38518;53.164;5.430;2023-11-19T07:32:48;10.40;99.90
51619;DHT22;38518;53.164;5.430;2023-11-19T07:35:14;10.40;99.90
51619;DHT22;38518;53.164;5.430;2023-11-19T07:37:42;10.40;99.90
51619;DHT22;38518;53.164;5.430;2023-11-19T07:40:08;10.40;99.90
51619;DHT22;38518;53.164;5.430;2023-11-19T07:42:34;10.40;99.90
51619;DHT22;38518;53.164;5.430;2023-11-19T07:44:59;10.20;99.90
51619;DHT22;38518;53.164;5.430;2023-11-19T07:47:25;10.50;99.90
51619;DHT22;38518;53.164;5.430;2023-11-19T07:49:51;10.50;99.90
51619;DHT22;38518;53.164;5.430;2023-11-19T07:52:17;10.50;99.90
51619;DHT22;38518;53.164;5.430;2023-11-19T07:54:42;10.60;99.90
51619;DHT22;38518;53.164;5.430;2023-11-19T07:57:09;10.60;99.90
51619;DHT22;38518;53.164;5.430;2023-11-19T07:59:34;10.60;99.90
51619;DHT22;38518;53.164;5.430;2023-11-19T08:02:00;10.50;99.90
51619;DHT22;38518;53.164;5.430;2023-11-19T08:04:26;10.50;99.90
51619;DHT22;38518;53.164;5.430;2023-11-19T08:06:51;10.50;99.90
51619;DHT22;38518;53.164;5.430;2023-11-19T08:09:17;10.50;99.90
51619;DHT22;38518;53.164;5.430;2023-11-19T08:11:43;10.50;99.90
51619;DHT22;38518;53.164;5.430;2023-11-19T08:14:09;10.70;99.90
51619;DHT22;38518;53.164;5.430;2023-11-19T08:16:35;10.60;99.90
51619;DHT22;38518;53.164;5.430;2023-11-19T08:19:01;10.60;99.90
51619;DHT22;38518;53.164;5.430;2023-11-19T08:21:28;10.60;99.90
51619;DHT22;38518;53.164;5.430;2023-11-19T08:23:54;10.60;99.90
51619;DHT22;38518;53.164;5.430;2023-11-19T08:26:20;10.70;99.90
51619;DHT22;38518;53.164;5.430;2023-11-19T08:28:45;10.70;99.90
51619;DHT22;38518;53.164;5.430;2023-11-19T08:31:11;10.70;99.90
51619;DHT22;38518;53.164;5.430;2023-11-19T08:33:37;10.70;99.90
51619;DHT22;38518;53.164;5.430;2023-11-19T08:36:03;10.80;99.90
51619;DHT22;38518;53.164;5.430;2023-11-19T08:38:30;10.80;99.90
51619;DHT22;38518;53.164;5.430;2023-11-19T08:40:56;10.80;99.90
51619;DHT22;38518;53.164;5.430;2023-11-19T08:43:28;10.90;99.90
51619;DHT22;38518;53.164;5.430;2023-11-19T08:45:55;10.90;99.90
51619;DHT22;38518;53.164;5.430;2023-11-19T08:48:20;10.90;99.90
51619;DHT22;38518;53.164;5.430;2023-11-19T08:50:46;10.90;99.90
51619;DHT22;38518;53.164;5.430;2023-11-19T08:53:12;10.90;99.90
51619;DHT22;38518;53.164;5.430;2023-11-19T08:55:37;10.90;99.90
51619;DHT22;38518;53.164;5.430;2023-11-19T08:58:03;11.00;99.90
51619;DHT22;38518;53.164;5.430;2023-11-19T09:00:29;11.10;99.90
51619;DHT22;38518;53.164;5.430;2023-11-19T09:02:55;11.20;99.90
51619;DHT22;38518;53.164;5.430;2023-11-19T09:05:21;11.30;99.90
51619;DHT22;38518;53.164;5.430;2023-11-19T09:07:47;11.40;99.90
51619;DHT22;38518;53.164;5.430;2023-11-19T09:10:14;11.50;99.90
51619;DHT22;38518;53.164;5.430;2023-11-19T09:12:39;11.50;99.90
51619;DHT22;38518;53.164;5.430;2023-11-19T09:15:05;11.50;99.90
51619;DHT22;38518;53.164;5.430;2023-11-19T09:17:32;11.50;99.90
51619;DHT22;38518;53.164;5.430;2023-11-19T09:19:57;11.70;99.90
51619;DHT22;38518;53.164;5.430;2023-11-19T09:22:23;11.90;99.90
51619;DHT22;38518;53.164;5.430;2023-11-19T09:24:49;12.10;99.90
51619;DHT22;38518;53.164;5.430;2023-11-19T09:27:14;12.30;99.90
51619;DHT22;38518;53.164;5.430;2023-11-19T09:29:41;12.30;92.30
51619;DHT22;38518;53.164;5.430;2023-11-19T09:32:08;12.10;84.20
51619;DHT22;38518;53.164;5.430;2023-11-19T09:34:34;12.10;86.20
51619;DHT22;38518;53.164;5.430;2023-11-19T09:37:00;12.20;92.40
51619;DHT22;38518;53.164;5.430;2023-11-19T09:39:25;12.30;78.00
51619;DHT22;38518;53.164;5.430;2023-11-19T09:41:51;12.30;64.20
51619;DHT22;38518;53.164;5.430;2023-11-19T09:44:17;12.20;61.10
51619;DHT22;38518;53.164;5.430;2023-11-19T09:46:44;12.10;54.80
51619;DHT22;38518;53.164;5.430;2023-11-19T09:49:11;12.10;60.80
51619;DHT22;38518;53.164;5.430;2023-11-19T09:51:38;12.00;65.30
51619;DHT22;38518;53.164;5.430;2023-11-19T09:54:04;12.00;62.40
51619;DHT22;38518;53.164;5.430;2023-11-19T09:56:30;11.90;63.60
51619;DHT22;38518;53.164;5.430;2023-11-19T09:58:57;11.90;65.60
51619;DHT22;38518;53.164;5.430;2023-11-19T10:01:24;11.80;67.20
51619;DHT22;38518;53.164;5.430;2023-11-19T10:03:51;11.80;63.40
51619;DHT22;38518;53.164;5.430;2023-11-19T10:06:20;11.80;62.60
51619;DHT22;38518;53.164;5.430;2023-11-19T10:08:47;11.80;67.30
51619;DHT22;38518;53.164;5.430;2023-11-19T10:11:13;11.70;67.80
51619;DHT22;38518;53.164;5.430;2023-11-19T10:13:39;11.70;69.70
51619;DHT22;38518;53.164;5.430;2023-11-19T10:16:08;11.60;62.60
51619;DHT22;38518;53.164;5.430;2023-11-19T10:18:34;11.60;66.70
51619;DHT22;38518;53.164;5.430;2023-11-19T10:21:06;11.60;68.40
51619;DHT22;38518;53.164;5.430;2023-11-19T10:23:52;11.60;67.80
51619;DHT22;38518;53.164;5.430;2023-11-19T10:26:20;11.70;70.20
51619;DHT22;38518;53.164;5.430;2023-11-19T10:28:47;11.90;78.00
51619;DHT22;38518;53.164;5.430;2023-11-19T10:31:17;12.10;70.70
51619;DHT22;38518;53.164;5.430;2023-11-19T10:33:44;12.30;57.30
51619;DHT22;38518;53.164;5.430;2023-11-19T10:36:14;12.50;53.80
51619;DHT22;38518;53.164;5.430;2023-11-19T10:38:40;12.70;54.10
51619;DHT22;38518;53.164;5.430;2023-11-19T10:41:07;12.00;39.80
51619;DHT22;38518;53.164;5.430;2023-11-19T10:43:59;11.40;32.30
51619;DHT22;38518;53.164;5.430;2023-11-19T10:46:41;12.20;25.30
51619;DHT22;38518;53.164;5.430;2023-11-19T10:49:08;12.10;33.10
51619;DHT22;38518;53.164;5.430;2023-11-19T10:51:34;11.90;33.90
51619;DHT22;38518;53.164;5.430;2023-11-19T10:54:04;11.70;35.30
51619;DHT22;38518;53.164;5.430;2023-11-19T10:56:34;11.80;37.90
51619;DHT22;38518;53.164;5.430;2023-11-19T10:59:00;11.70;39.50
51619;DHT22;38518;53.164;5.430;2023-11-19T11:01:43;11.70;45.20
51619;DHT22;38518;53.164;5.430;2023-11-19T11:04:23;11.60;41.80
51619;DHT22;38518;53.164;5.430;2023-11-19T11:06:51;11.60;47.30
51619;DHT22;38518;53.164;5.430;2023-11-19T11:09:19;11.60;52.50
51619;DHT22;38518;53.164;5.430;2023-11-19T11:11:50;11.60;53.60
51619;DHT22;38518;53.164;5.430;2023-11-19T11:14:18;11.70;59.80
51619;DHT22;38518;53.164;5.430;2023-11-19T11:16:46;11.70;62.70
51619;DHT22;38518;53.164;5.430;2023-11-19T11:19:15;11.70;52.80
51619;DHT22;38518;53.164;5.430;2023-11-19T11:21:46;11.70;56.80
51619;DHT22;38518;53.164;5.430;2023-11-19T11:24:16;11.70;55.20
51619;DHT22;38518;53.164;5.430;2023-11-19T11:27:26;11.80;57.20
51619;DHT22;38518;53.164;5.430;2023-11-19T11:30:17;11.90;59.40
51619;DHT22;38518;53.164;5.430;2023-11-19T11:33:21;12.10;66.60
51619;DHT22;38518;53.164;5.430;2023-11-19T11:36:19;12.50;59.20
51619;DHT22;38518;53.164;5.430;2023-11-19T11:38:48;12.70;43.90
51619;DHT22;38518;53.164;5.430;2023-11-19T11:41:24;12.60;27.20
51619;DHT22;38518;53.164;5.430;2023-11-19T11:43:54;12.50;19.60
51619;DHT22;38518;53.164;5.430;2023-11-19T11:49:02;12.40;12.70
51619;DHT22;38518;53.164;5.430;2023-11-19T11:54:10;12.20;10.00
51619;DHT22;38518;53.164;5.430;2023-11-19T11:56:39;12.20;15.90
51619;DHT22;38518;53.164;5.430;2023-11-19T11:59:18;12.10;16.70
51619;DHT22;38518;53.164;5.430;2023-11-19T12:01:58;12.20;19.20
51619;DHT22;38518;53.164;5.430;2023-11-19T12:04:27;12.50;25.30
51619;DHT22;38518;53.164;5.430;2023-11-19T12:07:20;12.70;19.70
51619;DHT22;38518;53.164;5.430;2023-11-19T12:09:48;12.80;13.10
51619;DHT22;38518;53.164;5.430;2023-11-19T12:20:04;13.50;1.00
51619;DHT22;38518;53.164;5.430;2023-11-19T12:22:41;13.60;1.00
51619;DHT22;38518;53.164;5.430;2023-11-19T12:25:09;13.80;1.00
51619;DHT22;38518;53.164;5.430;2023-11-19T12:27:36;14.10;1.00
51619;DHT22;38518;53.164;5.430;2023-11-19T12:30:03;14.50;1.00
51619;DHT22;38518;53.164;5.430;2023-11-19T12:32:43;14.50;1.00
51619;DHT22;38518;53.164;5.430;2023-11-19T12:35:10;14.30;1.00
51619;DHT22;38518;53.164;5.430;2023-11-19T12:37:42;14.00;1.00
51619;DHT22;38518;53.164;5.430;2023-11-19T12:40:12;13.70;1.00
51619;DHT22;38518;53.164;5.430;2023-11-19T12:42:38;13.40;1.00
51619;DHT22;38518;53.164;5.430;2023-11-19T12:45:05;13.20;1.00
51619;DHT22;38518;53.164;5.430;2023-11-19T12:47:31;13.10;1.00
51619;DHT22;38518;53.164;5.430;2023-11-19T12:49:57;12.80;1.00
51619;DHT22;38518;53.164;5.430;2023-11-19T12:52:23;12.70;1.00
51619;DHT22;38518;53.164;5.430;2023-11-19T12:54:51;12.60;1.00
51619;DHT22;38518;53.164;5.430;2023-11-19T12:57:17;12.50;1.00
51619;DHT22;38518;53.164;5.430;2023-11-19T12:59:55;12.40;1.00
51619;DHT22;38518;53.164;5.430;2023-11-19T13:05:30;12.20;1.00
51619;DHT22;38518;53.164;5.430;2023-11-19T13:08:02;12.10;1.00
51619;DHT22;38518;53.164;5.430;2023-11-19T13:10:29;12.00;1.00
51619;DHT22;38518;53.164;5.430;2023-11-19T13:13:08;12.00;1.00
51619;DHT22;38518;53.164;5.430;2023-11-19T13:15:34;11.80;1.50
51619;DHT22;38518;53.164;5.430;2023-11-19T13:18:01;11.80;5.30
51619;DHT22;38518;53.164;5.430;2023-11-19T13:20:28;11.80;9.90
51619;DHT22;38518;53.164;5.430;2023-11-19T13:23:01;11.80;12.70
51619;DHT22;38518;53.164;5.430;2023-11-19T13:25:28;11.70;14.20
51619;DHT22;38518;53.164;5.430;2023-11-19T13:27:54;11.70;16.30
51619;DHT22;38518;53.164;5.430;2023-11-19T13:30:21;11.70;14.50
51619;DHT22;38518;53.164;5.430;2023-11-19T13:32:48;11.70;18.60
51619;DHT22;38518;53.164;5.430;2023-11-19T13:35:14;11.70;19.10
51619;DHT22;38518;53.164;5.430;2023-11-19T13:37:40;11.60;16.40
51619;DHT22;38518;53.164;5.430;2023-11-19T13:40:09;10.80;20.10
51619;DHT22;38518;53.164;5.430;2023-11-19T13:42:39;11.60;16.90
51619;DHT22;38518;53.164;5.430;2023-11-19T13:45:10;11.50;16.50
51619;DHT22;38518;53.164;5.430;2023-11-19T13:47:41;11.50;17.20
51619;DHT22;38518;53.164;5.430;2023-11-19T13:50:12;12.10;18.70
51619;DHT22;38518;53.164;5.430;2023-11-19T13:52:39;11.50;19.70
51619;DHT22;38518;53.164;5.430;2023-11-19T13:55:06;11.50;20.50
51619;DHT22;38518;53.164;5.430;2023-11-19T13:57:33;11.50;23.40
51619;DHT22;38518;53.164;5.430;2023-11-19T14:00:00;11.50;23.70
51619;DHT22;38518;53.164;5.430;2023-11-19T14:02:26;11.50;20.50
51619;DHT22;38518;53.164;5.430;2023-11-19T14:04:52;11.50;22.90
51619;DHT22;38518;53.164;5.430;2023-11-19T14:07:17;11.50;24.90
51619;DHT22;38518;53.164;5.430;2023-11-19T14:09:43;11.50;25.70
51619;DHT22;38518;53.164;5.430;2023-11-19T14:12:09;11.60;23.40
51619;DHT22;38518;53.164;5.430;2023-11-19T14:14:35;11.50;19.10
51619;DHT22;38518;53.164;5.430;2023-11-19T14:17:04;11.60;19.40
51619;DHT22;38518;53.164;5.430;2023-11-19T14:19:29;11.50;20.10
51619;DHT22;38518;53.164;5.430;2023-11-19T14:21:55;11.60;19.00
51619;DHT22;38518;53.164;5.430;2023-11-19T14:24:21;11.50;16.40
51619;DHT22;38518;53.164;5.430;2023-11-19T14:26:47;11.50;16.50
51619;DHT22;38518;53.164;5.430;2023-11-19T14:29:14;11.50;17.40
51619;DHT22;38518;53.164;5.430;2023-11-19T14:31:41;11.50;18.10
51619;DHT22;38518;53.164;5.430;2023-11-19T14:34:06;11.50;18.30
51619;DHT22;38518;53.164;5.430;2023-11-19T14:36:32;11.50;17.20
51619;DHT22;38518;53.164;5.430;2023-11-19T14:38:58;11.50;16.10
51619;DHT22;38518;53.164;5.430;2023-11-19T14:41:26;11.40;17.60
51619;DHT22;38518;53.164;5.430;2023-11-19T14:43:52;11.40;20.60
51619;DHT22;38518;53.164;5.430;2023-11-19T14:46:18;11.40;21.20
51619;DHT22;38518;53.164;5.430;2023-11-19T14:48:44;11.40;23.20
51619;DHT22;38518;53.164;5.430;2023-11-19T14:51:10;11.40;24.20
51619;DHT22;38518;53.164;5.430;2023-11-19T14:53:35;11.40;27.70
51619;DHT22;38518;53.164;5.430;2023-11-19T14:56:01;11.30;31.30
51619;DHT22;38518;53.164;5.430;2023-11-19T14:58:27;11.30;37.60
51619;DHT22;38518;53.164;5.430;2023-11-19T15:00:53;11.20;43.60
51619;DHT22;38518;53.164;5.430;2023-11-19T15:03:19;11.10;51.10
51619;DHT22;38518;53.164;5.430;2023-11-19T15:05:45;11.10;55.60
51619;DHT22;38518;53.164;5.430;2023-11-19T15:08:14;11.00;63.10
51619;DHT22;38518;53.164;5.430;2023-11-19T15:10:43;11.00;70.30
51619;DHT22;38518;53.164;5.430;2023-11-19T15:13:10;11.00;77.10
51619;DHT22;38518;53.164;5.430;2023-11-19T15:15:36;11.00;81.40
51619;DHT22;38518;53.164;5.430;2023-11-19T15:18:02;10.90;84.70
51619;DHT22;38518;53.164;5.430;2023-11-19T15:20:27;10.90;88.80
51619;DHT22;38518;53.164;5.430;2023-11-19T15:22:56;10.90;90.60
51619;DHT22;38518;53.164;5.430;2023-11-19T15:25:22;10.80;91.30
51619;DHT22;38518;53.164;5.430;2023-11-19T15:27:48;10.80;91.90
51619;DHT22;38518;53.164;5.430;2023-11-19T15:30:14;10.80;92.60
51619;DHT22;38518;53.164;5.430;2023-11-19T15:32:44;10.80;93.60
51619;DHT22;38518;53.164;5.430;2023-11-19T15:35:10;10.80;95.00
51619;DHT22;38518;53.164;5.430;2023-11-19T15:37:36;10.80;96.00
51619;DHT22;38518;53.164;5.430;2023-11-19T15:40:06;10.80;98.20
51619;DHT22;38518;53.164;5.430;2023-11-19T15:42:36;10.80;98.40
51619;DHT22;38518;53.164;5.430;2023-11-19T15:45:02;10.80;99.90
51619;DHT22;38518;53.164;5.430;2023-11-19T15:47:35;10.70;99.90
51619;DHT22;38518;53.164;5.430;2023-11-19T15:50:01;10.70;99.90
51619;DHT22;38518;53.164;5.430;2023-11-19T15:52:29;10.70;99.90